createdAt,value
2022-11-17T00:01:11.736Z,95.20
2022-11-17T00:03:42.043Z,95.20
2022-11-17T00:06:13.753Z,95.00
2022-11-17T00:08:44.240Z,94.90
2022-11-17T00:11:14.762Z,94.70
2022-11-17T00:14:01.214Z,94.80
2022-11-17T00:16:31.802Z,94.80
2022-11-17T00:19:21.575Z,95.10
2022-11-17T00:21:52.079Z,94.80
2022-11-17T00:24:22.404Z,94.80
2022-11-17T00:27:07.880Z,94.90
2022-11-17T00:29:39.406Z,94.90
2022-11-17T00:32:32.482Z,95.00
2022-11-17T00:35:03.007Z,95.10
2022-11-17T00:37:37.910Z,95.10
2022-11-17T00:40:09.223Z,95.10
2022-11-17T00:42:39.641Z,95.20
2022-11-17T00:45:10.474Z,95.00
2022-11-17T00:47:40.915Z,95.10
2022-11-17T00:50:11.705Z,95.10
2022-11-17T00:52:42.174Z,95.10
2022-11-17T00:55:12.622Z,95.30
2022-11-17T00:57:43.108Z,95.20
2022-11-17T01:00:13.975Z,95.00
2022-11-17T01:02:44.415Z,95.00
2022-11-17T01:05:14.788Z,95.00
2022-11-17T01:07:45.243Z,95.00
2022-11-17T01:10:15.834Z,95.00
2022-11-17T01:12:45.627Z,95.10
2022-11-17T01:15:16.060Z,95.00
2022-11-17T01:17:46.398Z,94.90
2022-11-17T01:20:17.021Z,94.80
2022-11-17T01:22:46.755Z,94.80
2022-11-17T01:25:17.186Z,94.80
2022-11-17T01:27:47.572Z,94.80
2022-11-17T01:30:20.320Z,95.00
2022-11-17T01:32:50.690Z,94.90
2022-11-17T01:35:21.031Z,94.80
2022-11-17T01:37:51.322Z,94.90
2022-11-17T01:40:21.753Z,94.80
2022-11-17T01:42:52.058Z,94.90
2022-11-17T01:45:26.890Z,94.90
2022-11-17T01:48:02.510Z,94.80
2022-11-17T01:50:51.390Z,94.70
2022-11-17T01:53:24.337Z,94.60
2022-11-17T01:56:00.684Z,94.60
2022-11-17T01:58:37.494Z,94.60
2022-11-17T02:01:08.151Z,94.80
2022-11-17T02:03:39.060Z,94.40
2022-11-17T02:06:30.473Z,94.10
2022-11-17T02:09:02.045Z,93.90
2022-11-17T02:11:38.109Z,93.50
2022-11-17T02:14:09.111Z,93.20
2022-11-17T02:16:39.453Z,93.40
2022-11-17T02:19:11.985Z,93.50
2022-11-17T02:22:11.928Z,93.00
2022-11-17T02:25:22.996Z,92.90
2022-11-17T02:28:24.067Z,93.00
2022-11-17T02:31:29.875Z,92.60
2022-11-17T02:34:20.447Z,92.10
2022-11-17T02:36:58.408Z,92.40
2022-11-17T02:39:38.402Z,92.30
2022-11-17T02:42:19.844Z,92.20
2022-11-17T02:45:04.958Z,92.00
2022-11-17T02:47:38.971Z,92.00
2022-11-17T02:50:11.989Z,92.20
2022-11-17T02:52:42.342Z,92.20
2022-11-17T02:55:13.870Z,92.10
2022-11-17T02:57:44.576Z,92.50
2022-11-17T03:00:18.940Z,92.60
2022-11-17T03:03:15.769Z,92.90
2022-11-17T03:06:12.466Z,92.90
2022-11-17T03:09:00.136Z,92.60
2022-11-17T03:11:52.824Z,92.50
2022-11-17T03:14:32.376Z,92.50
2022-11-17T03:17:32.253Z,92.60
2022-11-17T03:20:16.028Z,92.40
2022-11-17T03:23:02.944Z,92.50
2022-11-17T03:25:39.095Z,92.70
2022-11-17T03:28:12.943Z,92.70
2022-11-17T03:30:46.540Z,92.00
2022-11-17T03:33:22.212Z,92.20
2022-11-17T03:35:59.143Z,92.20
2022-11-17T03:38:34.132Z,92.40
2022-11-17T03:41:05.795Z,92.20
2022-11-17T03:43:36.085Z,92.00
2022-11-17T03:46:09.610Z,92.10
2022-11-17T03:48:52.537Z,92.00
2022-11-17T03:51:27.959Z,91.90
2022-11-17T03:53:58.965Z,91.80
2022-11-17T03:56:53.502Z,91.40
2022-11-17T03:59:38.366Z,90.90
2022-11-17T04:02:08.343Z,91.20
2022-11-17T04:04:54.889Z,90.60
2022-11-17T04:07:24.887Z,90.50
2022-11-17T04:09:54.715Z,90.90
2022-11-17T04:12:35.499Z,91.00
2022-11-17T04:15:25.118Z,90.70
2022-11-17T04:17:55.210Z,90.40
2022-11-17T04:20:25.306Z,90.10
2022-11-17T04:23:06.167Z,90.10
2022-11-17T04:25:56.170Z,90.00
2022-11-17T04:28:43.055Z,90.10
2022-11-17T04:31:24.362Z,89.00
2022-11-17T04:34:02.847Z,88.60
2022-11-17T04:36:36.712Z,89.10
2022-11-17T04:39:07.798Z,89.30
2022-11-17T04:41:57.188Z,90.10
2022-11-17T04:44:30.307Z,88.70
2022-11-17T04:47:01.119Z,89.00
2022-11-17T04:49:31.440Z,88.50
2022-11-17T04:52:00.797Z,87.80
2022-11-17T04:54:31.001Z,87.10
2022-11-17T04:57:01.185Z,85.70
2022-11-17T04:59:31.257Z,86.30
2022-11-17T05:02:05.864Z,86.30
2022-11-17T05:04:48.682Z,86.30
2022-11-17T05:07:18.622Z,85.60
2022-11-17T05:09:48.491Z,84.60
2022-11-17T05:12:29.143Z,85.20
2022-11-17T05:14:59.006Z,83.70
2022-11-17T05:17:28.965Z,85.30
2022-11-17T05:19:59.841Z,85.30
2022-11-17T05:22:49.081Z,83.70
2022-11-17T05:25:19.251Z,83.80
2022-11-17T05:27:49.151Z,82.90
2022-11-17T05:30:19.042Z,81.80
2022-11-17T05:32:49.082Z,81.90
2022-11-17T05:35:18.914Z,79.50
2022-11-17T05:37:48.811Z,80.90
2022-11-17T05:40:18.985Z,80.30
2022-11-17T05:42:49.832Z,78.30
2022-11-17T05:45:23.097Z,76.70
2022-11-17T05:47:52.930Z,77.40
2022-11-17T05:50:22.770Z,77.80
2022-11-17T05:52:52.753Z,78.30
2022-11-17T05:55:22.768Z,78.50
2022-11-17T05:57:54.632Z,79.60
2022-11-17T06:00:24.616Z,79.10
2022-11-17T06:02:59.355Z,80.20
2022-11-17T06:05:29.674Z,80.90
2022-11-17T06:08:00.589Z,81.20
2022-11-17T06:10:30.652Z,80.20
2022-11-17T06:13:00.573Z,80.30
2022-11-17T06:15:30.703Z,79.90
2022-11-17T06:18:14.275Z,79.40
2022-11-17T06:20:50.740Z,79.00
2022-11-17T06:23:22.611Z,80.20
2022-11-17T06:25:52.819Z,80.10
2022-11-17T07:13:32.598Z,77.90
2022-11-17T07:16:16.338Z,75.90
2022-11-17T07:18:49.271Z,77.60
2022-11-17T07:21:19.607Z,78.40
2022-11-17T07:23:49.611Z,79.10
2022-11-17T07:26:19.892Z,78.10
2022-11-17T07:28:49.161Z,78.90
2022-11-17T07:31:19.063Z,79.00
2022-11-17T07:33:49.209Z,79.60
2022-11-17T07:36:19.131Z,78.90
2022-11-17T07:38:49.252Z,78.70
2022-11-17T07:41:19.238Z,79.30
2022-11-17T07:43:49.107Z,78.40
2022-11-17T07:46:19.307Z,79.30
2022-11-17T07:48:48.798Z,80.40
2022-11-17T07:51:19.134Z,79.80
2022-11-17T07:53:48.419Z,78.70
2022-11-17T07:56:19.472Z,78.70
2022-11-17T07:58:49.545Z,78.80
2022-11-17T08:01:22.837Z,79.20
2022-11-17T08:03:53.011Z,79.10
2022-11-17T08:06:24.467Z,78.80
2022-11-17T08:08:55.270Z,79.20
2022-11-17T08:11:25.664Z,78.70
2022-11-17T08:13:55.790Z,79.30
2022-11-17T08:16:25.064Z,78.40
2022-11-17T08:18:55.117Z,78.60
2022-11-17T08:21:25.421Z,78.40
2022-11-17T08:23:56.634Z,78.50
2022-11-17T08:26:28.300Z,78.40
2022-11-17T08:28:59.909Z,79.00
2022-11-17T08:31:30.071Z,78.50
2022-11-17T08:33:59.359Z,78.80
2022-11-17T08:36:29.282Z,78.80
2022-11-17T08:38:59.476Z,79.30
2022-11-17T08:41:28.936Z,79.00
2022-11-17T08:43:58.926Z,79.00
2022-11-17T08:46:28.964Z,79.30
2022-11-17T08:48:58.994Z,78.20
2022-11-17T08:51:30.703Z,78.30
2022-11-17T08:54:01.892Z,78.70
2022-11-17T08:56:31.867Z,79.70
2022-11-17T08:59:04.061Z,79.00
2022-11-17T09:01:34.461Z,79.40
2022-11-17T09:04:04.492Z,78.40
2022-11-17T09:06:34.584Z,77.50
2022-11-17T09:09:07.213Z,77.70
2022-11-17T09:11:37.405Z,78.70
2022-11-17T09:14:09.440Z,79.30
2022-11-17T09:16:46.590Z,78.70
2022-11-17T09:19:16.641Z,79.30
2022-11-17T09:21:46.834Z,80.00
2022-11-17T09:24:16.120Z,80.30
2022-11-17T09:26:46.362Z,80.30
2022-11-17T09:29:15.949Z,79.30
2022-11-17T09:31:45.773Z,79.40
2022-11-17T09:34:15.774Z,80.40
2022-11-17T09:36:46.621Z,81.30
2022-11-17T09:39:17.160Z,81.80
2022-11-17T09:41:50.349Z,81.80
2022-11-17T09:44:42.372Z,82.70
2022-11-17T09:47:47.299Z,82.10
2022-11-17T09:50:23.979Z,82.80
2022-11-17T09:53:18.043Z,83.20
2022-11-17T09:56:00.026Z,84.20
2022-11-17T09:58:54.046Z,83.60
2022-11-17T10:01:25.319Z,84.30
2022-11-17T10:03:56.890Z,84.60
2022-11-17T10:06:30.433Z,84.80
2022-11-17T10:09:25.728Z,85.70
2022-11-17T10:11:59.933Z,85.20
2022-11-17T10:14:31.915Z,86.00
2022-11-17T10:17:02.125Z,86.20
2022-11-17T10:19:33.102Z,86.10
2022-11-17T10:22:23.276Z,85.30
2022-11-17T10:24:57.267Z,86.00
2022-11-17T10:27:30.166Z,86.50
2022-11-17T10:30:22.566Z,87.10
2022-11-17T10:32:56.649Z,86.60
2022-11-17T10:35:29.111Z,87.00
2022-11-17T10:38:21.006Z,87.30
2022-11-17T10:40:54.215Z,87.70
2022-11-17T10:43:30.725Z,88.00
2022-11-17T10:46:06.519Z,88.30
2022-11-17T10:48:40.262Z,88.30
2022-11-17T10:51:25.530Z,88.40
2022-11-17T10:54:24.253Z,88.90
2022-11-17T10:56:57.905Z,88.90
2022-11-17T10:59:53.435Z,89.20
2022-11-17T11:02:41.601Z,88.70
2022-11-17T11:05:15.469Z,89.00
2022-11-17T11:07:45.769Z,89.10
2022-11-17T11:10:20.137Z,89.40
2022-11-17T11:13:01.067Z,89.60
2022-11-17T11:15:37.220Z,90.00
2022-11-17T11:18:17.140Z,90.20
2022-11-17T11:21:22.755Z,90.40
2022-11-17T11:24:22.992Z,90.60
2022-11-17T11:27:28.662Z,90.90
2022-11-17T11:30:09.025Z,91.00
2022-11-17T11:32:57.732Z,91.20
2022-11-17T11:35:56.691Z,91.30
2022-11-17T11:38:52.388Z,91.40
2022-11-17T11:41:54.265Z,91.40
2022-11-17T11:44:44.102Z,91.70
2022-11-17T11:47:40.534Z,91.60
2022-11-17T11:50:20.952Z,91.50
2022-11-17T11:52:52.686Z,91.40
2022-11-17T11:55:35.539Z,91.30
2022-11-17T11:58:22.999Z,91.40
2022-11-17T12:01:09.762Z,91.60
2022-11-17T12:03:50.898Z,91.60
2022-11-17T12:06:51.495Z,91.60
2022-11-17T12:09:43.652Z,91.50
2022-11-17T12:12:32.491Z,91.40
2022-11-17T12:15:35.790Z,91.40
2022-11-17T12:18:33.030Z,91.60
2022-11-17T12:21:13.802Z,91.70
2022-11-17T12:24:13.131Z,91.50
2022-11-17T12:26:43.974Z,91.70
2022-11-17T12:29:30.295Z,91.50
2022-11-17T12:32:03.093Z,91.40
2022-11-17T12:34:38.928Z,91.60
2022-11-17T12:37:23.713Z,91.60
2022-11-17T12:40:00.927Z,91.40
2022-11-17T12:42:34.935Z,91.60
2022-11-17T12:45:11.577Z,91.90
2022-11-17T12:48:04.775Z,91.60
2022-11-17T12:51:00.516Z,91.40
2022-11-17T12:54:08.171Z,91.30
2022-11-17T12:56:55.699Z,91.40
2022-11-17T13:00:00.329Z,92.00
2022-11-17T13:02:48.534Z,91.70
2022-11-17T13:05:24.934Z,91.50
2022-11-17T13:08:26.552Z,91.40
2022-11-17T13:11:08.941Z,91.50
2022-11-17T13:13:42.606Z,91.70
2022-11-17T13:16:24.348Z,91.60
2022-11-17T13:18:55.227Z,91.80
2022-11-17T13:21:34.667Z,91.90
2022-11-17T13:24:11.614Z,91.70
2022-11-17T13:26:42.428Z,91.70
2022-11-17T13:29:22.699Z,91.60
2022-11-17T13:31:53.367Z,91.60
2022-11-17T13:34:23.937Z,91.60
2022-11-17T13:37:00.779Z,92.00
2022-11-17T13:39:31.868Z,91.70
2022-11-17T13:42:05.520Z,91.70
2022-11-17T13:44:37.026Z,91.80
2022-11-17T13:47:24.113Z,91.90
2022-11-17T13:49:54.463Z,92.10
2022-11-17T13:52:46.531Z,91.80
2022-11-17T13:55:23.195Z,92.10
2022-11-17T13:58:05.237Z,92.20
2022-11-17T14:00:36.344Z,92.20
2022-11-17T14:03:28.336Z,91.90
2022-11-17T14:05:59.640Z,91.80
2022-11-17T14:08:34.304Z,91.80
2022-11-17T14:11:24.687Z,91.80
2022-11-17T14:14:03.402Z,91.70
2022-11-17T14:16:45.038Z,91.40
2022-11-17T14:19:34.039Z,91.10
2022-11-17T14:22:31.801Z,91.00
2022-11-17T14:25:03.451Z,91.30
2022-11-17T14:27:42.791Z,91.60
2022-11-17T14:30:15.743Z,92.10
2022-11-17T14:32:47.128Z,92.40
2022-11-17T14:37:50.526Z,92.60
2022-11-17T14:40:22.813Z,92.50
2022-11-17T14:42:53.744Z,92.30
2022-11-17T14:45:29.480Z,92.40
2022-11-17T14:47:59.976Z,92.30
2022-11-17T14:50:31.463Z,92.20
2022-11-17T14:53:02.466Z,92.20
2022-11-17T14:55:33.361Z,92.20
2022-11-17T14:58:04.017Z,92.20
2022-11-17T15:00:35.439Z,92.20
2022-11-17T15:03:05.959Z,92.30
2022-11-17T15:05:37.010Z,92.40
2022-11-17T15:08:08.197Z,92.40
2022-11-17T15:10:38.754Z,92.70
2022-11-17T15:13:09.280Z,92.90
2022-11-17T15:15:42.345Z,93.10
2022-11-17T15:18:14.961Z,93.10
2022-11-17T15:20:45.456Z,93.00
2022-11-17T15:23:16.001Z,92.80
2022-11-17T15:25:46.851Z,92.70
2022-11-17T15:28:22.423Z,92.90
2022-11-17T15:30:54.647Z,93.00
2022-11-17T15:33:25.369Z,93.00
2022-11-17T15:36:09.717Z,93.20
2022-11-17T15:38:42.069Z,93.20
2022-11-17T15:41:15.672Z,93.30
2022-11-17T15:43:47.822Z,93.10
2022-11-17T15:46:21.409Z,93.00
2022-11-17T15:48:59.467Z,93.00
2022-11-17T15:51:31.524Z,93.30
2022-11-17T15:54:03.041Z,93.30
2022-11-17T15:56:39.696Z,93.00
2022-11-17T15:59:10.344Z,93.00
2022-11-17T16:01:42.890Z,92.90
2022-11-17T16:04:18.218Z,93.00
2022-11-17T16:06:49.924Z,92.90
2022-11-17T16:09:20.588Z,92.80
2022-11-17T16:11:52.375Z,92.60
2022-11-17T16:14:23.671Z,92.70
2022-11-17T16:16:55.394Z,93.00
2022-11-17T16:19:26.304Z,93.00
2022-11-17T16:21:58.010Z,93.20
2022-11-17T16:24:29.071Z,93.50
2022-11-17T16:27:00.693Z,93.70
2022-11-17T16:29:31.504Z,93.90
2022-11-17T16:32:05.815Z,93.90
2022-11-17T16:34:36.958Z,93.90
2022-11-17T16:37:07.746Z,93.90
2022-11-17T16:39:38.135Z,94.10
2022-11-17T16:42:09.795Z,93.90
2022-11-17T16:44:40.262Z,93.70
2022-11-17T16:47:10.634Z,93.70
2022-11-17T16:49:41.095Z,93.70
2022-11-17T16:52:10.877Z,93.70
2022-11-17T16:54:41.516Z,93.70
2022-11-17T16:57:12.230Z,93.70
2022-11-17T16:59:42.646Z,93.60
2022-11-17T17:02:16.247Z,93.70
2022-11-17T17:04:47.831Z,93.90
2022-11-17T17:07:19.134Z,93.90
2022-11-17T17:09:49.722Z,93.80
2022-11-17T17:12:19.810Z,93.80
2022-11-17T17:14:50.931Z,94.00
2022-11-17T17:17:21.544Z,94.10
2022-11-17T17:19:51.320Z,94.10
2022-11-17T17:22:22.218Z,94.00
2022-11-17T17:24:52.652Z,94.00
2022-11-17T17:27:24.434Z,94.00
2022-11-17T17:29:58.964Z,94.10
2022-11-17T17:32:29.663Z,94.10
2022-11-17T17:35:00.330Z,94.10
2022-11-17T17:37:30.895Z,94.20
2022-11-17T17:40:01.165Z,94.10
2022-11-17T17:42:32.719Z,94.00
2022-11-17T17:45:03.337Z,94.10
2022-11-17T17:47:33.465Z,94.20
2022-11-17T17:50:03.912Z,94.10
2022-11-17T17:52:34.460Z,93.90
2022-11-17T17:55:04.285Z,93.80
2022-11-17T17:57:34.936Z,93.70
2022-11-17T18:00:06.680Z,93.90
2022-11-17T18:02:38.307Z,93.90
2022-11-17T18:05:09.278Z,93.70
2022-11-17T18:07:39.898Z,93.60
2022-11-17T18:10:17.478Z,93.60
2022-11-17T18:12:47.859Z,93.70
2022-11-17T18:15:20.336Z,93.70
2022-11-17T18:17:52.309Z,93.60
2022-11-17T18:20:25.431Z,93.70
2022-11-17T18:22:58.324Z,93.70
2022-11-17T18:25:29.040Z,93.90
2022-11-17T18:27:59.470Z,93.90
2022-11-17T18:30:29.913Z,93.70
2022-11-17T18:33:02.943Z,93.70
2022-11-17T18:35:33.840Z,93.80
2022-11-17T18:38:05.400Z,93.80
2022-11-17T18:40:36.286Z,93.70
2022-11-17T18:43:07.209Z,93.50
2022-11-17T18:45:40.566Z,93.40
2022-11-17T18:48:18.293Z,93.60
2022-11-17T18:51:17.775Z,93.80
2022-11-17T18:53:39.498Z,93.90
2022-11-17T18:56:12.907Z,94.00
2022-11-17T18:58:45.408Z,94.00
2022-11-17T19:01:22.030Z,94.00
2022-11-17T19:03:56.292Z,94.00
2022-11-17T19:06:30.597Z,94.00
2022-11-17T19:09:02.267Z,94.10
2022-11-17T19:11:35.029Z,93.90
2022-11-17T19:14:07.507Z,93.80
2022-11-17T19:16:44.064Z,93.60
2022-11-17T19:19:16.072Z,93.40
2022-11-17T19:21:46.879Z,93.40
2022-11-17T19:24:17.596Z,93.30
2022-11-17T19:26:49.511Z,93.30
2022-11-17T19:29:20.211Z,93.10
2022-11-17T19:31:51.412Z,93.00
2022-11-17T19:34:22.273Z,93.00
2022-11-17T19:36:52.713Z,93.10
2022-11-17T19:39:23.252Z,93.30
2022-11-17T19:41:53.213Z,93.60
2022-11-17T19:44:23.740Z,93.70
2022-11-17T19:46:53.665Z,93.70
2022-11-17T19:49:24.247Z,94.00
2022-11-17T19:51:54.124Z,93.80
2022-11-17T19:54:25.244Z,93.80
2022-11-17T19:56:55.675Z,93.80
2022-11-17T19:59:26.128Z,93.70
2022-11-17T20:01:56.608Z,93.80
2022-11-17T20:04:26.457Z,93.80
2022-11-17T20:06:57.689Z,93.80
2022-11-17T20:09:28.192Z,93.90
2022-11-17T20:11:58.641Z,93.70
2022-11-17T20:14:29.070Z,94.00
2022-11-17T20:16:59.625Z,94.00
2022-11-17T20:19:29.527Z,93.70
2022-11-17T20:22:00.159Z,93.60
2022-11-17T20:24:30.058Z,93.60
2022-11-17T20:27:01.161Z,93.70
2022-11-17T20:29:31.706Z,93.70
2022-11-17T20:32:02.165Z,93.90
2022-11-17T20:34:32.773Z,94.10
2022-11-17T20:37:02.567Z,94.00
2022-11-17T20:39:32.978Z,94.00
2022-11-17T20:42:03.640Z,94.00
2022-11-17T20:44:33.798Z,94.10
2022-11-17T20:47:04.300Z,94.00
2022-11-17T20:49:34.664Z,94.00
2022-11-17T20:52:09.086Z,94.00
2022-11-17T20:54:42.487Z,94.20
2022-11-17T20:57:12.977Z,94.30
2022-11-17T20:59:43.433Z,94.40
2022-11-17T21:02:14.975Z,94.50
2022-11-17T21:04:45.433Z,94.50
2022-11-17T21:07:15.955Z,94.50
2022-11-17T21:09:45.803Z,94.40
2022-11-17T21:12:16.285Z,94.50
2022-11-17T21:14:46.877Z,94.50
2022-11-17T21:17:36.192Z,94.60
2022-11-17T21:20:06.997Z,94.70
2022-11-17T21:22:37.444Z,94.50
2022-11-17T21:25:08.383Z,94.60
2022-11-17T21:27:38.908Z,94.50
2022-11-17T21:30:11.934Z,94.40
2022-11-17T21:32:42.413Z,94.50
2022-11-17T21:35:12.958Z,94.40
2022-11-17T21:37:42.675Z,94.60
2022-11-17T21:40:13.557Z,94.50
2022-11-17T21:42:44.248Z,94.30
2022-11-17T21:45:15.108Z,94.30
2022-11-17T21:47:45.604Z,94.50
2022-11-17T21:50:16.049Z,94.40
2022-11-17T21:52:46.498Z,94.40
2022-11-17T21:55:17.283Z,94.50
2022-11-17T21:57:47.845Z,94.40
2022-11-17T22:00:18.648Z,94.50
2022-11-17T22:02:49.148Z,94.50
2022-11-17T22:05:20.168Z,94.60
2022-11-17T22:07:51.029Z,94.70
2022-11-17T22:10:21.399Z,94.60
2022-11-17T22:12:51.890Z,94.60
2022-11-17T22:15:22.324Z,94.60
2022-11-17T22:17:52.828Z,94.60
2022-11-17T22:20:22.691Z,94.70
2022-11-17T22:22:56.341Z,94.70
2022-11-17T22:25:43.702Z,94.90
2022-11-17T22:28:16.872Z,94.80
2022-11-17T22:30:47.371Z,94.50
2022-11-17T22:33:18.330Z,94.50
2022-11-17T22:35:48.733Z,94.40
2022-11-17T22:38:19.888Z,94.40
2022-11-17T22:40:50.612Z,94.30
2022-11-17T22:43:21.089Z,94.20
2022-11-17T22:46:12.069Z,94.30
2022-11-17T22:48:42.715Z,94.60
2022-11-17T22:51:12.584Z,94.30
2022-11-17T22:53:43.082Z,94.30
2022-11-17T22:56:13.566Z,94.20
2022-11-17T22:58:49.456Z,94.10
2022-11-17T23:01:20.486Z,94.30
2022-11-17T23:03:50.348Z,94.50
2022-11-17T23:06:20.980Z,94.50
2022-11-17T23:08:50.987Z,94.60
2022-11-17T23:11:36.509Z,94.80
2022-11-17T23:14:10.083Z,94.90
2022-11-17T23:16:40.985Z,94.90
2022-11-17T23:19:16.110Z,94.90
2022-11-17T23:21:46.777Z,95.10
2022-11-17T23:24:17.423Z,95.20
2022-11-17T23:26:47.138Z,95.20
2022-11-17T23:29:17.801Z,95.30
2022-11-17T23:31:48.524Z,95.20
2022-11-17T23:34:18.985Z,95.20
2022-11-17T23:36:49.458Z,95.30
2022-11-17T23:39:19.973Z,95.20
2022-11-17T23:41:49.841Z,95.20
2022-11-17T23:44:20.355Z,95.20
2022-11-17T23:46:50.140Z,95.30
2022-11-17T23:49:20.528Z,95.40
2022-11-17T23:51:51.050Z,95.30
2022-11-17T23:54:21.566Z,95.40
2022-11-17T23:56:55.133Z,95.30
2022-11-17T23:59:25.587Z,95.20
